Time;durP1;ratioP1;P1;durP2;ratioP2;P2;SDS_P1;SDS_P2;PMS_P1;PMS_P2;Temp;Humidity;BMP_temperature;BMP_pressure;BME280_temperature;BME280_humidity;BME280_pressure;Samples;Min_cycle;Max_cycle;Signal;HPM_P1;HPM_P2
2022/10/05 00:01:51;;;;;;;15.07;6.65;;;12.50;99.90;;;;;;5031620;28;20040;-69
2022/10/05 00:04:20;;;;;;;14.40;6.60;;;12.40;99.90;;;;;;5049797;28;20047;-69
2022/10/05 00:06:56;;;;;;;13.35;6.57;;;12.40;99.90;;;;;;5049565;28;20028;-70
2022/10/05 00:09:22;;;;;;;12.82;7.50;;;12.40;99.90;;;;;;5049537;28;20029;-69
2022/10/05 00:11:49;;;;;;;14.10;6.80;;;12.40;99.90;;;;;;5049393;28;20705;-70
2022/10/05 00:14:22;;;;;;;13.20;6.20;;;12.40;99.90;;;;;;5049545;28;20052;-70
2022/10/05 00:16:48;;;;;;;11.00;6.65;;;12.40;99.90;;;;;;5049459;28;20033;-69
2022/10/05 00:19:21;;;;;;;10.63;6.18;;;12.40;99.90;;;;;;5049516;28;20366;-70
2022/10/05 00:21:47;;;;;;;14.85;6.38;;;12.40;99.90;;;;;;5049401;28;20059;-70
2022/10/05 00:24:17;;;;;;;9.82;6.03;;;12.40;99.90;;;;;;5049491;28;20385;-69
2022/10/05 00:26:43;;;;;;;15.07;6.22;;;12.40;99.90;;;;;;5049014;28;20105;-69
2022/10/05 00:29:22;;;;;;;11.05;5.93;;;12.50;99.90;;;;;;5031450;28;20120;-69
2022/10/05 00:31:48;;;;;;;;;;;12.50;99.90;;;;;;5049886;28;20129;-69
2022/10/05 00:34:15;;;;;;;11.15;6.13;;;12.50;99.90;;;;;;5031666;28;19909;-69
2022/10/05 00:36:42;;;;;;;11.00;6.65;;;12.50;99.90;;;;;;5033833;28;20086;-69
2022/10/05 00:39:08;;;;;;;10.93;5.70;;;12.50;99.90;;;;;;5053671;28;20420;-69
2022/10/05 00:41:49;;;;;;;11.52;5.93;;;12.50;99.90;;;;;;5053401;28;20025;-69
2022/10/05 00:44:35;;;;;;;11.68;5.82;;;12.50;99.90;;;;;;5035751;28;20167;-69
2022/10/05 00:47:16;;;;;;;11.68;6.18;;;12.50;99.90;;;;;;5035248;28;20037;-69
2022/10/05 00:50:03;;;;;;;11.20;5.68;;;12.50;99.90;;;;;;5035236;28;20025;-70
2022/10/05 00:52:43;;;;;;;11.55;5.90;;;12.50;99.90;;;;;;5035237;28;20025;-70
2022/10/05 00:55:12;;;;;;;11.27;6.22;;;12.50;99.90;;;;;;5035215;28;20040;-70
2022/10/05 00:58:16;;;;;;;12.32;7.13;;;12.50;99.90;;;;;;5034773;28;20029;-70
2022/10/05 01:01:10;;;;;;;12.55;7.18;;;12.50;99.90;;;;;;5053075;28;20063;-70
2022/10/05 01:04:06;;;;;;;10.32;5.68;;;12.50;99.90;;;;;;5043918;28;20037;-69
2022/10/05 01:06:56;;;;;;;8.55;5.82;;;12.50;99.90;;;;;;5034703;28;20056;-70
2022/10/05 01:09:50;;;;;;;10.15;6.05;;;12.50;99.90;;;;;;5034891;28;20024;-70
2022/10/05 01:12:30;;;;;;;12.88;6.10;;;12.60;99.90;;;;;;5052540;28;20056;-70
2022/10/05 01:15:38;;;;;;;12.48;6.70;;;12.60;99.90;;;;;;5018499;28;20028;-70
2022/10/05 01:18:23;;;;;;;12.55;6.75;;;12.60;99.90;;;;;;4951972;29;20122;-70
2022/10/05 01:21:04;;;;;;;10.88;5.80;;;12.50;99.90;;;;;;5049201;28;20437;-70
2022/10/05 01:23:47;;;;;;;10.48;6.53;;;12.50;99.90;;;;;;5052687;28;20057;-70
2022/10/05 01:26:43;;;;;;;9.55;6.40;;;12.60;99.90;;;;;;5052583;28;20477;-70
2022/10/05 01:29:15;;;;;;;11.90;6.57;;;12.60;99.90;;;;;;5053165;28;20059;-70
2022/10/05 01:32:03;;;;;;;13.07;6.60;;;12.60;99.90;;;;;;5052393;28;20025;-70
2022/10/05 01:34:34;;;;;;;9.60;5.95;;;12.60;99.90;;;;;;5052610;28;20094;-70
2022/10/05 01:37:05;;;;;;;10.50;6.25;;;12.60;99.90;;;;;;5034274;28;20596;-70
2022/10/05 01:39:53;;;;;;;12.18;6.28;;;12.60;99.90;;;;;;5034368;28;20032;-70
2022/10/05 01:42:41;;;;;;;12.15;6.60;;;12.60;99.90;;;;;;5051876;28;20404;-70
2022/10/05 01:45:23;;;;;;;15.40;6.68;;;12.50;99.90;;;;;;5052486;28;20397;-70
2022/10/05 01:48:00;;;;;;;13.93;6.03;;;12.60;99.90;;;;;;5051777;28;20034;-71
2022/10/05 01:50:48;;;;;;;11.05;6.50;;;12.50;99.90;;;;;;5034100;28;20033;-71
2022/10/05 01:53:31;;;;;;;11.32;6.32;;;12.50;99.90;;;;;;5052093;28;20085;-70
2022/10/05 01:56:22;;;;;;;12.10;6.80;;;12.60;99.90;;;;;;5034066;28;20489;-70
2022/10/05 01:59:19;;;;;;;12.98;7.25;;;12.50;99.90;;;;;;5033562;28;20024;-71
2022/10/05 02:01:58;;;;;;;10.75;6.82;;;12.50;99.90;;;;;;5033794;28;20029;-71
2022/10/05 02:04:31;;;;;;;11.05;6.60;;;12.50;99.90;;;;;;5033839;28;20025;-71
2022/10/05 02:07:00;;;;;;;13.63;7.13;;;12.60;99.90;;;;;;5033707;28;20029;-72
2022/10/05 02:09:32;;;;;;;13.15;7.70;;;12.60;99.90;;;;;;5033743;28;20059;-71
2022/10/05 02:12:06;;;;;;;11.57;7.13;;;12.60;99.90;;;;;;5033197;28;20064;-71
2022/10/05 02:14:43;;;;;;;10.85;6.82;;;12.60;99.90;;;;;;5033868;28;20037;-71
2022/10/05 02:17:34;;;;;;;13.55;7.57;;;12.70;99.90;;;;;;5051405;28;20121;-71
2022/10/05 02:20:10;;;;;;;13.88;7.40;;;12.70;99.90;;;;;;5033470;28;20032;-71
2022/10/05 02:22:45;;;;;;;13.90;7.57;;;12.80;99.90;;;;;;5033724;28;20496;-71
2022/10/05 02:25:28;;;;;;;14.18;7.55;;;12.80;99.90;;;;;;5033430;28;20477;-71
2022/10/05 02:28:00;;;;;;;13.35;7.10;;;12.90;99.90;;;;;;5032992;28;20021;-71
2022/10/05 02:30:30;;;;;;;11.52;7.10;;;12.90;99.90;;;;;;5033602;28;20029;-71
2022/10/05 02:33:05;;;;;;;12.55;7.32;;;12.90;99.90;;;;;;5031603;28;20029;-71
2022/10/05 02:35:31;;;;;;;12.70;7.32;;;13.00;99.90;;;;;;5031925;28;20148;-71
2022/10/05 02:38:27;;;;;;;13.65;7.53;;;13.00;99.90;;;;;;5049323;28;20029;-71
2022/10/05 02:41:14;;;;;;;13.65;7.55;;;13.00;99.90;;;;;;5007803;28;20040;-71
2022/10/05 02:44:19;;;;;;;14.77;8.25;;;13.10;99.90;;;;;;5031452;28;20441;-71
2022/10/05 02:47:06;;;;;;;13.35;7.30;;;13.10;99.90;;;;;;5032531;28;20029;-70
2022/10/05 02:49:41;;;;;;;11.40;7.47;;;13.10;99.90;;;;;;5033341;28;20033;-71
2022/10/05 02:52:32;;;;;;;13.35;7.45;;;13.10;99.90;;;;;;5033473;28;20032;-71
2022/10/05 02:55:19;;;;;;;13.40;7.15;;;13.20;99.90;;;;;;4983548;28;20037;-70
2022/10/05 02:58:11;;;;;;;13.52;7.65;;;13.10;99.90;;;;;;5051016;28;20049;-70
2022/10/05 03:01:01;;;;;;;12.98;6.57;;;13.10;99.90;;;;;;5029298;28;20471;-71
2022/10/05 03:03:43;;;;;;;11.65;7.25;;;13.20;99.90;;;;;;5033390;28;20029;-71
2022/10/05 03:06:19;;;;;;;10.85;6.22;;;13.10;99.90;;;;;;5033279;28;20079;-70
2022/10/05 03:09:05;;;;;;;11.48;7.55;;;13.20;99.90;;;;;;5033033;28;20028;-70
2022/10/05 03:11:35;;;;;;;11.02;6.75;;;13.20;99.90;;;;;;5050282;28;20055;-70
2022/10/05 03:14:29;;;;;;;12.38;7.13;;;13.20;99.90;;;;;;5051012;28;20424;-71
2022/10/05 03:17:12;;;;;;;9.85;7.30;;;13.20;99.90;;;;;;5050847;28;20025;-71
2022/10/05 03:19:53;;;;;;;12.23;7.47;;;13.20;99.90;;;;;;5032407;28;20166;-70
2022/10/05 03:22:25;;;;;;;12.38;6.97;;;13.20;99.90;;;;;;5032439;28;20037;-71
2022/10/05 03:24:51;;;;;;;14.90;6.75;;;13.20;99.90;;;;;;5032401;28;20029;-71
2022/10/05 03:27:34;;;;;;;10.80;6.90;;;13.20;99.90;;;;;;5031837;28;20040;-69
2022/10/05 03:30:27;;;;;;;12.57;7.05;;;13.30;99.90;;;;;;5050339;28;20041;-71
2022/10/05 03:33:21;;;;;;;11.18;6.68;;;13.30;99.90;;;;;;5014836;28;20427;-70
2022/10/05 03:35:56;;;;;;;13.60;7.43;;;13.40;99.90;;;;;;5032430;28;20029;-68
2022/10/05 03:39:00;;;;;;;11.65;6.95;;;13.40;99.90;;;;;;5032047;28;20446;-70
2022/10/05 03:41:51;;;;;;;14.48;6.90;;;13.40;99.90;;;;;;5032097;28;20118;-69
2022/10/05 03:44:47;;;;;;;12.65;7.25;;;13.40;99.90;;;;;;5015836;28;20032;-71
2022/10/05 03:47:36;;;;;;;13.88;7.10;;;13.40;99.90;;;;;;5034619;28;20110;-68
2022/10/05 03:50:32;;;;;;;11.57;6.65;;;13.40;99.90;;;;;;5051710;28;20097;-69
2022/10/05 03:53:05;;;;;;;9.10;6.00;;;13.40;99.90;;;;;;5051421;28;20025;-68
2022/10/05 03:56:04;;;;;;;11.93;6.53;;;13.40;99.90;;;;;;5051935;28;20082;-69
2022/10/05 03:58:46;;;;;;;11.10;6.38;;;13.40;99.90;;;;;;5050956;28;20029;-69
2022/10/05 04:01:20;;;;;;;11.60;6.75;;;13.40;99.90;;;;;;5069602;28;20107;-69
2022/10/05 04:03:52;;;;;;;11.25;6.47;;;13.40;99.90;;;;;;5069692;28;20454;-68
2022/10/05 04:06:25;;;;;;;10.00;6.45;;;13.40;99.90;;;;;;5051772;28;20361;-70
2022/10/05 04:09:03;;;;;;;10.95;6.72;;;13.40;99.90;;;;;;5051565;28;20030;-70
2022/10/05 04:11:51;;;;;;;12.85;7.40;;;13.40;99.90;;;;;;5068454;28;20123;-70
2022/10/05 04:14:22;;;;;;;9.90;6.32;;;13.40;99.90;;;;;;5051657;28;20056;-69
2022/10/05 04:16:56;;;;;;;9.45;6.45;;;13.40;99.90;;;;;;5051377;28;20115;-68
2022/10/05 04:19:26;;;;;;;9.13;6.18;;;13.40;99.90;;;;;;5069653;28;20035;-68
2022/10/05 04:22:11;;;;;;;11.15;6.43;;;13.50;99.90;;;;;;5051309;28;20031;-68
2022/10/05 04:24:45;;;;;;;9.02;6.03;;;13.40;99.90;;;;;;5051548;28;20394;-69
2022/10/05 04:27:17;;;;;;;11.30;6.93;;;13.50;99.90;;;;;;5034355;28;20033;-68
2022/10/05 04:30:01;;;;;;;16.33;6.95;;;13.40;99.90;;;;;;5051329;28;20116;-68
2022/10/05 04:32:48;;;;;;;14.07;6.53;;;13.50;99.90;;;;;;5051334;28;20497;-68
2022/10/05 04:35:45;;;;;;;10.05;6.25;;;13.40;99.90;;;;;;5069527;28;20028;-69
2022/10/05 04:38:42;;;;;;;12.68;7.57;;;13.40;99.90;;;;;;5051142;28;20067;-68
2022/10/05 04:41:29;;;;;;;10.38;6.55;;;13.40;99.90;;;;;;5051308;28;20489;-68
2022/10/05 04:44:04;;;;;;;9.77;6.18;;;13.40;99.90;;;;;;5051169;28;20024;-69
2022/10/05 04:46:44;;;;;;;11.93;6.40;;;13.40;99.90;;;;;;5069182;28;20056;-69
2022/10/05 04:49:23;;;;;;;10.93;6.70;;;13.40;99.90;;;;;;5051207;28;20021;-69
2022/10/05 04:52:02;;;;;;;10.63;6.75;;;13.40;99.90;;;;;;5051208;28;20056;-68
2022/10/05 04:55:03;;;;;;;12.80;7.32;;;13.40;99.90;;;;;;5051597;28;20056;-68
2022/10/05 04:57:50;;;;;;;11.13;6.22;;;13.40;99.90;;;;;;5051214;28;20028;-68
2022/10/05 05:00:23;;;;;;;10.68;6.47;;;13.40;99.90;;;;;;5051999;28;20033;-68
2022/10/05 05:03:22;;;;;;;11.68;6.97;;;13.40;99.90;;;;;;5052002;28;20056;-69
2022/10/05 05:06:10;;;;;;;11.75;6.65;;;13.40;99.90;;;;;;5051172;28;20190;-68
2022/10/05 05:08:43;;;;;;;13.20;7.13;;;13.40;99.90;;;;;;5050821;28;20039;-69
2022/10/05 05:11:26;;;;;;;14.07;8.07;;;13.40;99.90;;;;;;5034499;28;20036;-68
2022/10/05 05:14:15;;;;;;;13.68;8.48;;;13.40;99.90;;;;;;5050714;28;20020;-68
2022/10/05 05:16:44;;;;;;;13.43;7.90;;;13.40;99.90;;;;;;5050575;28;20124;-69
2022/10/05 05:19:15;;;;;;;12.55;7.40;;;13.40;99.90;;;;;;5051032;28;20111;-69
2022/10/05 05:21:56;;;;;;;12.70;7.57;;;13.40;99.90;;;;;;5051503;28;20029;-68
2022/10/05 05:24:45;;;;;;;10.00;7.05;;;13.40;99.90;;;;;;5054357;28;20048;-68
2022/10/05 05:27:27;;;;;;;13.73;7.53;;;13.40;99.90;;;;;;5054017;28;20426;-69
2022/10/05 05:30:06;;;;;;;9.23;6.50;;;13.40;99.90;;;;;;5054277;28;20097;-68
2022/10/05 05:32:56;;;;;;;11.32;6.80;;;13.40;99.90;;;;;;5054425;28;20028;-68
2022/10/05 05:35:43;;;;;;;10.88;7.90;;;13.40;99.90;;;;;;5072454;28;20029;-68
2022/10/05 05:38:30;;;;;;;11.52;6.57;;;13.40;99.90;;;;;;5054368;28;20025;-69
2022/10/05 05:41:08;;;;;;;11.40;7.53;;;13.40;99.90;;;;;;5054521;28;20033;-69
2022/10/05 05:43:59;;;;;;;12.25;6.72;;;13.40;99.90;;;;;;5054012;28;20379;-68
2022/10/05 05:50:23;;;;;;;12.55;6.65;;;13.40;99.90;;;;;;5063506;22;20047;-72
2022/10/05 05:53:00;;;;;;;20.45;7.13;;;13.40;99.90;;;;;;5054228;28;20028;-72
2022/10/05 05:55:34;;;;;;;11.57;7.00;;;13.40;99.90;;;;;;5071840;28;20488;-72
2022/10/05 05:58:52;;;;;;;11.32;6.90;;;13.40;99.90;;;;;;5053704;28;20028;-72
2022/10/05 06:01:21;;;;;;;11.07;6.70;;;13.40;99.90;;;;;;4993909;28;20030;-72
2022/10/05 06:03:56;;;;;;;12.60;6.63;;;13.50;99.90;;;;;;4993601;28;20037;-72
2022/10/05 06:06:30;;;;;;;12.73;6.60;;;13.50;99.90;;;;;;5027175;28;20060;-72
2022/10/05 06:09:04;;;;;;;10.82;6.38;;;13.50;99.90;;;;;;5072297;28;20086;-72
2022/10/05 06:11:45;;;;;;;;;;;13.50;99.90;;;;;;5072161;28;20524;-73
2022/10/05 06:14:23;;;;;;;11.13;6.82;;;13.50;99.90;;;;;;5054081;28;20369;-72
2022/10/05 06:17:00;;;;;;;11.55;6.75;;;13.50;99.90;;;;;;5054049;28;20032;-72
2022/10/05 06:19:27;;;;;;;14.65;7.55;;;13.50;99.90;;;;;;5054507;28;20029;-74
2022/10/05 06:22:14;;;;;;;10.82;6.75;;;13.60;99.90;;;;;;5054000;28;20036;-72
2022/10/05 06:25:08;;;;;;;10.73;6.38;;;13.60;99.90;;;;;;5054109;28;20523;-72
2022/10/05 06:27:36;;;;;;;11.48;6.40;;;13.60;99.90;;;;;;5053237;28;20453;-72
2022/10/05 06:30:13;;;;;;;11.25;5.78;;;13.60;99.90;;;;;;5054102;28;20388;-72
2022/10/05 06:32:51;;;;;;;11.07;6.25;;;13.60;99.90;;;;;;5053332;28;20025;-71
2022/10/05 06:35:32;;;;;;;11.60;6.40;;;13.60;99.90;;;;;;5053687;28;20374;-71
2022/10/05 06:38:23;;;;;;;10.07;6.45;;;13.70;99.90;;;;;;5054001;28;20383;-71
2022/10/05 06:41:05;;;;;;;11.55;6.13;;;13.70;99.90;;;;;;5053619;28;20119;-72
2022/10/05 06:43:40;;;;;;;12.23;6.70;;;13.70;99.90;;;;;;5053141;28;20028;-72
2022/10/05 06:46:37;;;;;;;24.27;14.85;;;13.80;99.90;;;;;;5073390;28;20039;-73
2022/10/05 06:49:28;;;;;;;11.95;7.32;;;14.30;99.90;;;;;;5052728;28;20489;-72
2022/10/05 06:52:35;;;;;;;11.57;6.20;;;14.50;99.90;;;;;;5052746;28;20028;-71
2022/10/05 06:55:20;;;;;;;13.68;5.90;;;14.70;99.90;;;;;;5052981;28;20110;-70
2022/10/05 06:58:00;;;;;;;9.65;6.22;;;14.60;99.90;;;;;;5052498;28;20028;-71
2022/10/05 07:00:44;;;;;;;11.27;5.88;;;14.60;99.90;;;;;;5052747;28;20112;-71
2022/10/05 07:03:28;;;;;;;11.27;5.90;;;14.50;99.90;;;;;;5053179;28;20038;-72
2022/10/05 07:06:38;;;;;;;8.63;5.70;;;14.40;99.90;;;;;;5071542;28;20051;-71
2022/10/05 07:09:20;;;;;;;9.75;6.03;;;14.30;99.90;;;;;;5012336;28;20037;-70
2022/10/05 07:11:46;;;;;;;11.98;7.30;;;14.20;99.90;;;;;;5052562;28;20036;-71
2022/10/05 07:14:25;;;;;;;7.95;5.85;;;14.20;99.90;;;;;;5053290;28;20342;-72
2022/10/05 07:17:11;;;;;;;11.55;6.13;;;14.10;99.90;;;;;;5053096;28;20489;-71
2022/10/05 07:19:51;;;;;;;12.95;6.70;;;14.10;99.90;;;;;;5053128;28;20516;-71
2022/10/05 07:22:29;;;;;;;9.38;5.90;;;14.10;99.90;;;;;;5052882;28;20024;-71
2022/10/05 07:24:59;;;;;;;11.02;5.78;;;14.00;99.90;;;;;;5070847;28;20024;-72
2022/10/05 07:27:32;;;;;;;13.95;7.00;;;14.00;99.90;;;;;;5035572;28;20039;-70
2022/10/05 07:30:13;;;;;;;8.18;6.03;;;14.00;99.90;;;;;;5052663;28;20020;-70
2022/10/05 07:32:54;;;;;;;11.38;5.55;;;14.00;99.90;;;;;;5032179;28;20121;-72
2022/10/05 07:38:31;;;;;;;8.68;5.50;;;14.00;99.90;;;;;;5032266;28;19948;-71
2022/10/05 07:41:21;;;;;;;9.05;5.65;;;14.00;99.90;;;;;;5032260;28;20033;-72
2022/10/05 07:44:04;;;;;;;13.38;5.72;;;14.00;99.90;;;;;;5031912;28;20025;-70
2022/10/05 07:46:40;;;;;;;7.97;5.60;;;14.00;99.90;;;;;;5016456;28;20152;-70
2022/10/05 07:49:24;;;;;;;11.77;6.55;;;14.00;99.90;;;;;;5031874;28;20021;-70
2022/10/05 07:52:35;;;;;;;15.60;8.52;;;14.10;99.90;;;;;;5015645;28;20087;-71
2022/10/05 07:55:16;;;;;;;10.38;6.80;;;14.10;99.90;;;;;;4971696;28;20098;-71
2022/10/05 07:57:57;;;;;;;11.98;5.93;;;14.10;99.90;;;;;;5029156;28;20586;-71
2022/10/05 08:00:29;;;;;;;11.02;6.00;;;14.10;99.90;;;;;;5049555;28;20060;-74
2022/10/05 08:03:13;;;;;;;8.75;5.45;;;14.10;99.90;;;;;;5031351;28;20552;-73
2022/10/05 08:05:45;;;;;;;10.57;5.57;;;14.20;99.90;;;;;;5049569;28;20047;-73
2022/10/05 08:08:28;;;;;;;9.95;5.10;;;14.20;99.90;;;;;;5031449;28;20095;-74
2022/10/05 08:11:10;;;;;;;10.15;6.10;;;14.20;99.90;;;;;;5049563;28;20426;-74
2022/10/05 08:13:46;;;;;;;9.27;6.03;;;14.20;99.90;;;;;;5048955;28;20159;-73
2022/10/05 08:16:13;;;;;;;10.88;5.85;;;14.20;99.90;;;;;;5049412;28;20032;-71
2022/10/05 08:19:19;;;;;;;12.82;5.90;;;14.20;99.90;;;;;;5048978;28;20025;-72
2022/10/05 08:22:22;;;;;;;10.18;4.88;;;14.30;99.90;;;;;;5048954;28;20057;-71
2022/10/05 08:25:08;;;;;;;8.07;5.50;;;14.30;99.90;;;;;;5017126;28;20183;-71
2022/10/05 08:27:53;;;;;;;10.07;5.45;;;14.30;99.90;;;;;;5030733;28;20124;-72
2022/10/05 08:30:19;;;;;;;10.63;5.47;;;14.40;99.90;;;;;;5031238;28;20448;-72
2022/10/05 08:32:59;;;;;;;7.88;5.22;;;14.40;99.90;;;;;;5048887;28;20486;-70
2022/10/05 08:35:39;;;;;;;8.77;5.35;;;14.40;99.90;;;;;;5049447;28;20100;-71
2022/10/05 08:38:17;;;;;;;8.75;5.25;;;14.40;99.90;;;;;;5048844;28;20043;-71
2022/10/05 08:41:06;;;;;;;10.45;5.28;;;14.40;99.90;;;;;;5049229;28;20035;-70
2022/10/05 08:44:11;;;;;;;7.80;5.00;;;14.50;99.90;;;;;;5030686;28;20033;-72
2022/10/05 08:46:48;;;;;;;9.75;5.25;;;14.50;99.90;;;;;;5016435;28;20044;-71
2022/10/05 08:49:52;;;;;;;10.48;4.68;;;14.50;99.90;;;;;;5049090;28;20033;-70
2022/10/05 08:52:28;;;;;;;6.72;4.18;;;14.60;99.90;;;;;;5048241;28;20044;-71
2022/10/05 08:55:08;;;;;;;9.50;4.20;;;14.60;99.90;;;;;;5067439;28;20338;-71
2022/10/05 08:57:40;;;;;;;8.75;4.35;;;14.60;99.90;;;;;;5069842;28;20086;-71
2022/10/05 09:00:21;;;;;;;8.48;4.93;;;14.70;99.90;;;;;;5072357;28;20127;-70
2022/10/05 09:03:16;;;;;;;10.43;4.90;;;14.70;99.90;;;;;;5071548;28;20033;-71
2022/10/05 09:06:04;;;;;;;8.50;4.43;;;14.80;99.90;;;;;;5054443;28;20482;-72
2022/10/05 09:09:02;;;;;;;7.43;3.80;;;14.80;99.90;;;;;;5071801;28;20021;-70
2022/10/05 09:11:28;;;;;;;7.03;3.75;;;14.90;99.90;;;;;;5071314;28;20027;-72
2022/10/05 09:14:28;;;;;;;7.18;4.30;;;14.90;99.90;;;;;;5053310;28;20104;-72
2022/10/05 09:17:16;;;;;;;5.97;3.88;;;15.00;99.90;;;;;;5071816;28;20033;-70
2022/10/05 09:19:42;;;;;;;10.15;5.03;;;15.00;99.90;;;;;;5071739;28;20051;-72
2022/10/05 09:22:29;;;;;;;13.48;5.60;;;15.10;99.90;;;;;;5070474;28;20024;-71
2022/10/05 09:25:18;;;;;;;12.57;6.38;;;15.20;99.90;;;;;;5053614;28;20024;-70
2022/10/05 09:27:55;;;;;;;9.00;4.85;;;15.40;99.90;;;;;;5060479;28;20062;-71
2022/10/05 09:30:25;;;;;;;11.70;6.05;;;15.40;99.90;;;;;;5071547;28;20035;-70
2022/10/05 09:33:06;;;;;;;11.13;5.00;;;15.50;99.90;;;;;;5070306;28;20110;-70
2022/10/05 09:35:44;;;;;;;6.85;3.97;;;15.50;99.90;;;;;;5072129;28;20039;-71
2022/10/05 09:38:49;;;;;;;10.27;5.63;;;15.50;99.90;;;;;;5071988;28;20036;-71
2022/10/05 09:41:40;;;;;;;11.07;4.82;;;15.50;99.90;;;;;;5070935;28;20049;-71
2022/10/05 09:44:53;;;;;;;6.75;3.92;;;15.50;99.90;;;;;;5071036;28;20041;-71
2022/10/05 09:47:37;;;;;;;9.50;4.28;;;15.50;99.90;;;;;;5071898;28;20039;-69
2022/10/05 09:50:25;;;;;;;9.63;3.63;;;15.50;99.90;;;;;;5054009;28;20032;-73
2022/10/05 09:53:09;;;;;;;8.88;4.30;;;15.50;99.90;;;;;;5072582;28;20109;-68
2022/10/05 09:55:49;;;;;;;8.35;4.10;;;15.60;99.90;;;;;;5072119;28;20074;-69
2022/10/05 09:58:43;;;;;;;10.10;3.90;;;15.60;99.90;;;;;;5071704;28;20063;-68
2022/10/05 10:01:45;;;;;;;8.82;4.15;;;15.60;99.90;;;;;;5071587;28;20398;-69
2022/10/05 10:04:29;;;;;;;11.30;4.18;;;15.60;99.90;;;;;;5053729;28;20129;-69
2022/10/05 10:07:16;;;;;;;12.07;3.85;;;15.70;99.90;;;;;;5053186;28;20066;-69
2022/10/05 10:09:59;;;;;;;10.68;4.70;;;15.70;99.90;;;;;;5070287;28;20182;-68
2022/10/05 10:12:59;;;;;;;11.95;4.15;;;15.70;99.90;;;;;;5071126;28;20029;-69
2022/10/05 10:15:53;;;;;;;5.38;3.20;;;15.70;99.90;;;;;;5071717;28;20036;-69
2022/10/05 10:18:41;;;;;;;4.50;3.35;;;15.80;99.90;;;;;;5072224;28;20032;-70
2022/10/05 10:21:06;;;;;;;6.50;3.75;;;15.80;99.90;;;;;;5072155;28;20528;-69
2022/10/05 10:23:53;;;;;;;5.50;3.78;;;15.80;99.90;;;;;;5071444;28;20120;-68
2022/10/05 10:26:48;;;;;;;8.23;3.53;;;15.90;99.90;;;;;;5071551;28;20051;-73
2022/10/05 10:29:29;;;;;;;13.32;3.78;;;15.90;99.90;;;;;;5022774;28;20084;-74
2022/10/05 10:32:14;;;;;;;11.35;3.15;;;16.00;99.90;;;;;;5071172;28;20032;-74
2022/10/05 10:34:54;;;;;;;6.78;2.85;;;16.00;99.90;;;;;;5071275;28;20043;-74
2022/10/05 10:37:57;;;;;;;8.15;2.80;;;16.10;99.90;;;;;;5053035;28;20059;-74
2022/10/05 10:40:48;;;;;;;6.68;3.00;;;16.10;99.90;;;;;;5070930;28;20220;-74
2022/10/05 10:43:25;;;;;;;6.88;3.47;;;16.20;99.90;;;;;;5050776;28;20032;-75
2022/10/05 10:46:19;;;;;;;6.32;3.80;;;16.20;99.90;;;;;;5070747;28;20028;-75
2022/10/05 10:48:56;;;;;;;6.47;2.20;;;16.30;99.90;;;;;;5071166;28;20131;-74
2022/10/05 10:51:27;;;;;;;6.97;2.00;;;16.30;99.90;;;;;;5072089;28;20036;-74
2022/10/05 10:54:38;;;;;;;7.38;1.95;;;16.40;99.90;;;;;;5053673;28;20040;-74
2022/10/05 10:57:16;;;;;;;4.35;1.77;;;16.40;99.90;;;;;;5070472;28;20548;-72
2022/10/05 10:59:42;;;;;;;6.75;3.50;;;16.40;99.90;;;;;;5070829;28;20112;-72
2022/10/05 11:02:39;;;;;;;9.85;2.40;;;16.50;99.90;;;;;;5052362;28;20111;-72
2022/10/05 11:05:16;;;;;;;9.00;1.90;;;16.60;99.90;;;;;;5070727;28;20098;-75
2022/10/05 11:08:27;;;;;;;6.55;2.00;;;16.60;99.90;;;;;;5070347;28;20115;-73
2022/10/05 11:11:13;;;;;;;5.47;1.70;;;16.70;99.90;;;;;;5045237;28;20036;-73
2022/10/05 11:13:42;;;;;;;4.68;1.80;;;16.70;99.90;;;;;;5035606;28;20032;-76
2022/10/05 11:16:45;;;;;;;7.03;1.70;;;16.80;99.90;;;;;;5070585;28;20539;-73
2022/10/05 11:19:23;;;;;;;5.82;1.95;;;16.80;99.90;;;;;;5070127;28;20041;-74
2022/10/05 11:22:00;;;;;;;5.30;2.00;;;16.90;99.90;;;;;;5070064;28;20060;-71
2022/10/05 11:24:49;;;;;;;5.68;1.73;;;16.90;99.90;;;;;;5070001;28;20149;-71
2022/10/05 11:27:32;;;;;;;6.85;1.80;;;16.90;99.90;;;;;;5069750;28;20385;-74
2022/10/05 11:30:43;;;;;;;10.55;1.88;;;17.00;99.90;;;;;;5070010;28;20093;-72
2022/10/05 11:33:37;;;;;;;12.32;2.20;;;17.00;99.90;;;;;;4969210;28;20576;-71
2022/10/05 11:36:24;;;;;;;5.45;2.05;;;17.00;99.90;;;;;;4969205;28;20045;-74
2022/10/05 11:39:21;;;;;;;6.20;1.80;;;17.00;99.90;;;;;;5049437;28;20044;-76
2022/10/05 11:42:14;;;;;;;8.70;2.95;;;17.00;99.90;;;;;;5069733;28;20031;-75
2022/10/05 11:45:18;;;;;;;7.55;2.90;;;17.10;99.90;;;;;;5052210;28;20071;-72
2022/10/05 11:48:06;;;;;;;6.47;3.28;;;17.10;99.90;;;;;;5076318;22;20037;-70
2022/10/05 11:50:51;;;;;;;7.80;2.47;;;17.30;99.90;;;;;;5050985;28;20380;-71
2022/10/05 11:53:23;;;;;;;7.28;2.85;;;17.40;99.90;;;;;;5030369;28;20079;-74
2022/10/05 11:56:11;;;;;;;8.85;3.83;;;17.50;99.90;;;;;;5030519;28;20156;-74
2022/10/05 11:58:46;;;;;;;5.95;2.03;;;17.60;99.90;;;;;;5029465;28;20032;-74
2022/10/05 12:01:33;;;;;;;9.88;2.60;;;17.70;99.90;;;;;;5030307;28;20095;-75
2022/10/05 12:04:27;;;;;;;6.47;2.30;;;17.70;99.90;;;;;;5029570;28;20480;-72
2022/10/05 12:07:12;;;;;;;4.68;2.15;;;17.80;99.90;;;;;;5012174;28;20021;-73
2022/10/05 12:12:47;;;;;;;7.03;2.13;;;17.90;99.90;;;;;;5011208;28;20033;-73
2022/10/05 12:15:18;;;;;;;4.05;1.70;;;17.90;99.90;;;;;;5029651;28;20038;-75
2022/10/05 12:17:56;;;;;;;3.92;2.05;;;17.80;99.90;;;;;;5029401;28;20068;-75
2022/10/05 12:20:49;;;;;;;5.18;2.13;;;17.80;99.90;;;;;;5011197;28;20044;-76
2022/10/05 12:23:32;;;;;;;4.40;2.45;;;17.70;99.90;;;;;;5029631;28;20111;-76
2022/10/05 12:26:04;;;;;;;3.95;2.22;;;17.70;99.90;;;;;;5029468;28;20075;-72
2022/10/05 12:28:52;;;;;;;8.18;2.83;;;17.70;99.90;;;;;;4994711;28;20087;-72
2022/10/05 12:31:39;;;;;;;6.22;2.65;;;17.70;99.90;;;;;;4989253;28;20034;-72
2022/10/05 12:34:23;;;;;;;5.05;2.28;;;17.80;99.90;;;;;;5029617;28;20040;-72
2022/10/05 12:37:15;;;;;;;3.22;2.28;;;17.70;99.90;;;;;;5029288;28;20030;-72
2022/10/05 12:39:55;;;;;;;3.83;2.08;;;17.80;99.90;;;;;;5029266;28;20030;-72
2022/10/05 12:42:34;;;;;;;5.03;2.55;;;17.80;99.90;;;;;;5028900;28;20103;-72
2022/10/05 12:45:23;;;;;;;4.35;2.00;;;17.80;99.90;;;;;;5029679;28;20033;-72
2022/10/05 12:48:14;;;;;;;4.05;2.53;;;17.90;99.90;;;;;;5011968;28;20091;-72
2022/10/05 12:50:45;;;;;;;4.95;2.00;;;18.00;99.90;;;;;;5029909;28;20038;-72
2022/10/05 12:53:27;;;;;;;4.97;2.30;;;18.00;99.90;;;;;;5029887;28;20040;-72
2022/10/05 12:56:10;;;;;;;4.32;2.22;;;17.90;99.90;;;;;;5029837;28;20441;-72
2022/10/05 12:58:52;;;;;;;5.80;2.60;;;17.90;99.90;;;;;;5024184;28;20029;-75
2022/10/05 13:01:24;;;;;;;4.32;1.98;;;18.00;99.90;;;;;;5011743;28;20048;-75
2022/10/05 13:04:16;;;;;;;8.48;2.25;;;18.10;99.90;;;;;;5010545;28;20029;-75
2022/10/05 13:07:04;;;;;;;4.80;2.15;;;18.10;99.90;;;;;;5010805;28;20530;-74
2022/10/05 13:09:45;;;;;;;5.45;2.50;;;18.00;99.90;;;;;;5027956;28;20057;-75
2022/10/05 13:12:22;;;;;;;3.72;2.20;;;18.10;99.90;;;;;;5028127;28;20037;-74
2022/10/05 13:14:52;;;;;;;7.30;2.00;;;18.10;99.90;;;;;;5010806;28;20416;-75
2022/10/05 13:17:37;;;;;;;5.53;2.38;;;18.00;99.90;;;;;;5027296;28;20521;-75
2022/10/05 13:20:26;;;;;;;4.18;1.80;;;18.00;99.90;;;;;;5010799;28;20449;-75
2022/10/05 13:23:00;;;;;;;;;;;18.10;99.90;;;;;;5013496;28;20084;-74
2022/10/05 13:26:03;;;;;;;3.67;1.65;;;18.10;99.90;;;;;;5010622;28;19913;-74
2022/10/05 13:28:52;;;;;;;3.08;1.73;;;18.10;99.90;;;;;;5013261;28;20137;-74
2022/10/05 13:31:53;;;;;;;2.72;1.58;;;18.30;99.90;;;;;;5028057;28;20040;-74
2022/10/05 13:34:59;;;;;;;5.45;1.50;;;18.20;99.90;;;;;;5010645;28;20502;-75
2022/10/05 13:37:45;;;;;;;8.68;2.10;;;18.30;99.90;;;;;;5008709;28;20049;-75
2022/10/05 13:40:46;;;;;;;4.43;1.70;;;18.30;99.90;;;;;;5028244;28;20036;-74
2022/10/05 13:43:16;;;;;;;2.63;1.60;;;18.30;99.90;;;;;;4978872;28;20045;-74
2022/10/05 13:46:00;;;;;;;3.67;1.42;;;18.20;99.90;;;;;;5031702;28;20029;-74
2022/10/05 13:48:50;;;;;;;5.25;1.40;;;18.30;99.90;;;;;;5030395;28;20033;-73
2022/10/05 13:51:44;;;;;;;3.55;1.55;;;18.40;99.90;;;;;;5031503;28;20037;-74
2022/10/05 13:54:20;;;;;;;9.80;1.92;;;18.40;99.90;;;;;;5020641;28;20476;-75
2022/10/05 13:57:21;;;;;;;4.32;1.83;;;18.60;99.90;;;;;;5031064;28;20033;-75
2022/10/05 13:59:58;;;;;;;3.42;1.48;;;18.70;99.90;;;;;;5010429;28;20026;-75
2022/10/05 14:02:30;;;;;;;4.45;1.30;;;18.70;99.90;;;;;;4993968;28;20038;-74
2022/10/05 14:05:12;;;;;;;9.57;2.22;;;18.80;99.90;;;;;;5012005;28;20044;-75
2022/10/05 14:07:51;;;;;;;2.75;1.30;;;18.80;99.90;;;;;;5016206;28;20413;-74
2022/10/05 14:10:33;;;;;;;4.60;1.40;;;18.80;99.90;;;;;;5031420;28;20025;-72
2022/10/05 14:13:00;;;;;;;6.90;2.05;;;18.90;99.90;;;;;;5030076;28;20031;-74